Time;durP1;ratioP1;P1;durP2;ratioP2;P2;SDS_P1;SDS_P2;PMS_P1;PMS_P2;Temp;Humidity;BMP_temperature;BMP_pressure;BME280_temperature;BME280_humidity;BME280_pressure;Samples;Min_cycle;Max_cycle;Signal;HPM_P1;HPM_P2
2021/12/08 00:00:47;;;;;;;6.97;1.77;;;5.20;99.90;;;;;;5028408;28;20401;-66
2021/12/08 00:03:14;;;;;;;9.20;2.88;;;5.20;99.90;;;;;;5047947;28;20106;-66
2021/12/08 00:05:43;;;;;;;6.72;1.70;;;5.10;99.90;;;;;;5048367;28;20126;-66
2021/12/08 00:08:11;;;;;;;9.68;2.33;;;5.10;99.90;;;;;;5048509;28;20056;-66
2021/12/08 00:13:27;;;;;;;7.88;2.70;;;5.10;99.90;;;;;;5045995;28;20115;-65
2021/12/08 00:16:00;;;;;;;10.00;2.00;;;5.10;99.90;;;;;;5048830;28;20072;-66
2021/12/08 00:18:28;;;;;;;9.77;1.90;;;5.10;99.90;;;;;;5050114;28;20091;-66
2021/12/08 00:20:57;;;;;;;11.65;3.55;;;5.10;99.90;;;;;;5048417;28;20396;-65
2021/12/08 00:23:24;;;;;;;8.60;2.07;;;5.10;99.90;;;;;;5051189;28;20061;-65
2021/12/08 00:25:53;;;;;;;8.32;4.07;;;5.20;99.90;;;;;;5034038;28;20040;-68
2021/12/08 00:28:21;;;;;;;5.65;2.08;;;5.20;99.90;;;;;;5013349;28;20849;-70
2021/12/08 00:30:50;;;;;;;6.72;1.75;;;5.20;99.90;;;;;;5045514;28;20048;-65
2021/12/08 00:33:17;;;;;;;7.50;2.03;;;5.30;99.90;;;;;;5032227;28;20087;-66
2021/12/08 00:35:46;;;;;;;13.32;3.20;;;5.30;99.90;;;;;;5047847;28;20120;-66
2021/12/08 00:38:14;;;;;;;6.65;2.47;;;5.20;99.90;;;;;;5042746;28;20045;-65
2021/12/08 00:40:42;;;;;;;9.40;1.77;;;5.20;99.90;;;;;;5030987;28;20072;-66
2021/12/08 00:43:10;;;;;;;7.90;2.13;;;5.30;99.90;;;;;;5051749;28;20057;-66
2021/12/08 00:45:37;;;;;;;6.53;1.60;;;5.30;99.90;;;;;;5047343;28;20049;-66
2021/12/08 00:48:04;;;;;;;12.98;2.10;;;5.20;99.90;;;;;;5027619;28;20049;-67
2021/12/08 00:50:33;;;;;;;10.43;2.72;;;5.30;99.90;;;;;;5043436;28;20044;-65
2021/12/08 00:53:00;;;;;;;7.63;2.00;;;5.30;99.90;;;;;;5034289;28;20056;-68
2021/12/08 01:02:31;;;;;;;7.50;1.90;;;5.30;99.90;;;;;;5048757;28;20120;-66
2021/12/08 01:04:59;;;;;;;10.52;2.33;;;5.30;99.90;;;;;;5047109;28;20053;-65
2021/12/08 01:07:26;;;;;;;7.70;2.10;;;5.30;99.90;;;;;;5048847;28;20091;-66
2021/12/08 01:09:53;;;;;;;7.15;2.88;;;5.30;99.90;;;;;;5052826;28;20045;-65
2021/12/08 01:12:21;;;;;;;19.30;4.35;;;5.40;99.90;;;;;;5050975;28;20048;-66
2021/12/08 01:14:48;;;;;;;8.85;2.47;;;5.40;99.90;;;;;;5053584;28;20133;-65
2021/12/08 01:17:15;;;;;;;12.77;2.10;;;5.40;99.90;;;;;;5034651;28;20045;-65
2021/12/08 01:19:42;;;;;;;17.40;3.42;;;5.40;99.90;;;;;;5051403;28;20041;-65
2021/12/08 01:22:09;;;;;;;13.63;3.78;;;5.40;99.90;;;;;;5051639;28;20068;-65
2021/12/08 01:24:36;;;;;;;12.52;4.30;;;5.40;99.90;;;;;;5055908;28;20091;-65
2021/12/08 01:27:03;;;;;;;19.17;4.68;;;5.50;99.90;;;;;;5052932;28;20053;-65
2021/12/08 01:29:30;;;;;;;16.98;4.05;;;5.50;99.90;;;;;;5054874;28;20503;-67
2021/12/08 01:31:57;;;;;;;13.25;3.30;;;5.50;99.90;;;;;;5059250;28;20045;-65
2021/12/08 01:34:25;;;;;;;11.50;2.60;;;5.50;99.90;;;;;;5052310;28;20059;-65
2021/12/08 01:36:53;;;;;;;7.35;2.58;;;5.50;99.90;;;;;;5052358;28;20045;-65
2021/12/08 01:39:21;;;;;;;17.52;3.83;;;5.50;99.90;;;;;;5049540;28;20060;-65
2021/12/08 01:41:48;;;;;;;8.32;2.45;;;5.50;99.90;;;;;;5051219;28;20060;-66
2021/12/08 01:47:00;;;;;;;9.95;2.35;;;5.40;99.90;;;;;;5032669;28;20389;-66
2021/12/08 01:49:27;;;;;;;8.48;2.88;;;5.40;99.90;;;;;;5057192;28;20049;-65
2021/12/08 01:51:54;;;;;;;12.85;2.70;;;5.40;99.90;;;;;;5051906;28;20056;-65
2021/12/08 01:54:21;;;;;;;11.57;3.15;;;5.40;99.90;;;;;;5056275;28;20052;-65
2021/12/08 01:56:53;;;;;;;14.65;3.40;;;5.40;99.90;;;;;;5052660;28;20081;-65
2021/12/08 01:59:22;;;;;;;19.88;3.35;;;5.50;99.90;;;;;;5057800;28;20053;-65
2021/12/08 02:01:49;;;;;;;11.60;2.88;;;5.50;99.90;;;;;;5052410;28;20396;-66
2021/12/08 02:04:16;;;;;;;17.98;2.78;;;5.50;99.90;;;;;;5052290;28;20048;-65
2021/12/08 02:06:44;;;;;;;17.50;2.83;;;5.50;99.90;;;;;;5038061;28;20484;-65
2021/12/08 02:09:13;;;;;;;14.85;2.60;;;5.50;99.90;;;;;;5050398;28;20060;-65
2021/12/08 02:11:41;;;;;;;11.23;2.75;;;5.50;99.90;;;;;;5038107;28;20546;-66
2021/12/08 02:14:09;;;;;;;12.70;3.70;;;5.50;99.90;;;;;;5044125;28;20436;-65
2021/12/08 02:16:36;;;;;;;15.85;4.30;;;5.60;99.90;;;;;;5052189;28;20285;-66
2021/12/08 02:19:03;;;;;;;16.98;3.90;;;5.60;99.90;;;;;;5051084;28;20052;-68
2021/12/08 02:21:39;;;;;;;11.85;2.67;;;5.70;99.90;;;;;;5050811;28;20044;-66
2021/12/08 02:24:08;;;;;;;13.77;3.78;;;5.70;99.90;;;;;;5030675;28;20063;-66
2021/12/08 02:26:35;;;;;;;10.70;2.63;;;5.60;99.90;;;;;;5050729;28;20057;-66
2021/12/08 02:29:06;;;;;;;10.18;2.50;;;5.70;99.90;;;;;;5033122;28;20057;-66
2021/12/08 02:31:52;;;;;;;5.95;2.08;;;5.60;99.90;;;;;;5029234;28;20107;-66
2021/12/08 02:48:06;;;;;;;14.23;2.88;;;5.40;99.90;;;;;;5049463;28;20037;-66
2021/12/08 02:50:38;;;;;;;9.65;2.60;;;5.40;99.90;;;;;;5014591;28;20489;-65
2021/12/08 02:53:06;;;;;;;12.05;2.28;;;5.40;99.90;;;;;;5049971;28;20044;-65
2021/12/08 02:55:33;;;;;;;12.07;2.65;;;5.40;99.90;;;;;;5049860;28;20396;-65
2021/12/08 02:58:01;;;;;;;14.27;2.63;;;5.40;99.90;;;;;;5033695;28;20383;-65
2021/12/08 03:00:30;;;;;;;10.18;2.67;;;5.40;99.90;;;;;;5033376;28;20450;-66
2021/12/08 03:02:58;;;;;;;10.67;2.03;;;5.40;99.90;;;;;;5050073;28;20137;-65
2021/12/08 03:05:25;;;;;;;9.32;2.72;;;5.50;99.90;;;;;;5049721;28;20071;-70
2021/12/08 03:07:52;;;;;;;13.60;3.15;;;5.40;99.90;;;;;;5030418;28;20053;-66
2021/12/08 03:10:22;;;;;;;13.73;2.95;;;5.40;99.90;;;;;;5048712;28;20183;-66
2021/12/08 03:12:49;;;;;;;5.95;2.13;;;5.40;99.90;;;;;;5034891;28;20076;-65
2021/12/08 03:15:17;;;;;;;8.27;3.58;;;5.40;99.90;;;;;;5017365;28;20448;-66
2021/12/08 03:17:44;;;;;;;6.85;2.08;;;5.40;99.90;;;;;;5050473;28;20044;-66
2021/12/08 03:20:14;;;;;;;8.65;3.13;;;5.40;99.90;;;;;;5048752;28;20053;-66
2021/12/08 03:22:46;;;;;;;15.20;3.20;;;5.40;99.90;;;;;;5044960;28;20048;-68
2021/12/08 03:25:16;;;;;;;11.00;2.35;;;5.40;99.90;;;;;;5031065;28;20076;-65
2021/12/08 03:28:03;;;;;;;9.70;3.65;;;5.30;99.90;;;;;;5032593;28;20412;-65
2021/12/08 03:30:50;;;;;;;8.55;2.10;;;5.30;99.90;;;;;;5050255;28;20049;-63
2021/12/08 03:33:17;;;;;;;12.60;3.70;;;5.30;99.90;;;;;;5050768;28;20435;-66
2021/12/08 03:35:44;;;;;;;14.88;4.28;;;5.30;99.90;;;;;;5029447;28;20093;-66
2021/12/08 03:38:11;;;;;;;13.35;4.65;;;5.20;99.90;;;;;;5043976;28;20064;-65
2021/12/08 03:40:38;;;;;;;20.48;5.32;;;5.20;99.90;;;;;;5050504;28;20041;-65
2021/12/08 03:43:05;;;;;;;11.95;2.78;;;5.20;99.90;;;;;;5050777;28;20102;-64
2021/12/08 03:45:35;;;;;;;6.40;2.17;;;5.20;99.90;;;;;;5049237;28;20045;-65
2021/12/08 03:48:07;;;;;;;11.80;2.42;;;5.20;99.90;;;;;;5045411;28;20128;-65
2021/12/08 03:50:36;;;;;;;14.73;3.13;;;5.30;99.90;;;;;;5032621;28;20358;-65
2021/12/08 03:53:04;;;;;;;10.45;2.50;;;5.20;99.90;;;;;;5047398;28;20118;-64
2021/12/08 03:55:37;;;;;;;12.10;2.55;;;5.30;99.90;;;;;;5048197;28;20084;-64
2021/12/08 03:58:04;;;;;;;7.95;2.50;;;5.30;99.90;;;;;;5048729;28;20382;-65
2021/12/08 04:00:31;;;;;;;20.80;3.25;;;5.30;99.90;;;;;;5048274;28;20061;-64
2021/12/08 04:02:59;;;;;;;21.13;4.15;;;5.30;99.90;;;;;;5049895;28;20349;-64
2021/12/08 04:05:39;;;;;;;11.48;2.53;;;5.30;99.90;;;;;;5032233;28;20041;-66
2021/12/08 04:08:15;;;;;;;13.55;2.80;;;5.30;99.90;;;;;;5049320;28;20061;-65
2021/12/08 04:10:43;;;;;;;11.93;2.45;;;5.30;99.90;;;;;;5016503;28;20049;-63
2021/12/08 04:13:10;;;;;;;16.75;3.05;;;5.30;99.90;;;;;;5028729;28;20060;-66
2021/12/08 04:15:38;;;;;;;11.77;3.17;;;5.40;99.90;;;;;;5047376;28;20722;-63
2021/12/08 04:18:04;;;;;;;15.18;3.03;;;5.40;99.90;;;;;;5048526;28;20106;-66
2021/12/08 04:20:38;;;;;;;36.15;5.05;;;5.40;99.90;;;;;;5048062;28;20051;-66
2021/12/08 04:23:07;;;;;;;15.52;2.95;;;5.40;99.90;;;;;;5031171;28;20116;-67
2021/12/08 04:25:36;;;;;;;13.90;4.05;;;5.50;99.90;;;;;;5048997;28;20484;-66
2021/12/08 04:28:08;;;;;;;11.63;2.60;;;5.40;99.90;;;;;;5028577;28;20125;-65
2021/12/08 04:30:41;;;;;;;11.90;2.70;;;5.50;99.90;;;;;;5043306;28;20041;-65
2021/12/08 04:33:08;;;;;;;16.23;3.67;;;5.40;99.90;;;;;;5049617;28;20097;-65
2021/12/08 04:35:36;;;;;;;15.45;3.30;;;5.40;99.90;;;;;;5047756;28;20409;-65
2021/12/08 04:38:06;;;;;;;13.13;2.80;;;5.40;99.90;;;;;;5047410;28;20073;-64
2021/12/08 04:40:49;;;;;;;17.35;2.95;;;5.40;99.90;;;;;;5046956;28;20090;-65
2021/12/08 04:43:27;;;;;;;15.23;3.40;;;5.40;99.90;;;;;;5027022;28;20406;-64
2021/12/08 04:46:15;;;;;;;9.45;3.15;;;5.40;99.90;;;;;;5052638;28;20056;-65
2021/12/08 04:49:03;;;;;;;13.80;3.15;;;5.50;99.90;;;;;;5051299;28;20122;-65
2021/12/08 04:51:51;;;;;;;11.82;3.15;;;5.40;99.90;;;;;;5049160;28;20037;-65
2021/12/08 05:05:48;;;;;;;18.15;3.80;;;5.50;99.90;;;;;;5051316;28;20456;-65
2021/12/08 05:08:18;;;;;;;13.00;2.75;;;5.50;99.90;;;;;;5039633;28;20403;-65
2021/12/08 05:10:45;;;;;;;11.82;3.00;;;5.50;99.90;;;;;;5052183;28;20045;-65
2021/12/08 05:13:13;;;;;;;12.63;4.05;;;5.50;99.90;;;;;;5050929;28;20045;-65
2021/12/08 05:15:44;;;;;;;19.55;6.70;;;5.50;99.90;;;;;;5050925;28;20053;-65
2021/12/08 05:18:15;;;;;;;18.33;4.95;;;5.50;99.90;;;;;;5035562;28;20060;-66
2021/12/08 05:20:53;;;;;;;13.80;3.30;;;5.50;99.90;;;;;;5051014;28;20060;-65
2021/12/08 05:23:30;;;;;;;12.32;3.90;;;5.40;99.90;;;;;;5050906;28;20052;-65
2021/12/08 05:25:58;;;;;;;14.90;3.17;;;5.40;99.90;;;;;;5050178;28;20112;-66
2021/12/08 05:28:26;;;;;;;11.02;3.78;;;5.40;99.90;;;;;;5050138;28;20057;-65
2021/12/08 05:30:55;;;;;;;15.75;3.08;;;5.40;99.90;;;;;;5050781;28;20488;-67
2021/12/08 05:33:23;;;;;;;7.30;2.60;;;5.30;99.90;;;;;;5034848;28;20443;-64
2021/12/08 05:35:50;;;;;;;16.25;3.08;;;5.30;99.90;;;;;;5051195;28;20068;-64
2021/12/08 05:38:17;;;;;;;19.20;3.88;;;5.30;99.90;;;;;;5052126;28;20489;-65
2021/12/08 05:41:01;;;;;;;16.63;3.13;;;5.30;99.90;;;;;;5035183;28;20044;-65
2021/12/08 05:43:27;;;;;;;11.05;3.40;;;5.30;99.90;;;;;;5050954;28;20052;-64
2021/12/08 05:45:54;;;;;;;10.05;3.05;;;5.30;99.90;;;;;;5052453;28;20408;-65
2021/12/08 05:48:22;;;;;;;15.40;3.13;;;5.30;99.90;;;;;;5052031;28;20045;-64
2021/12/08 05:50:55;;;;;;;13.27;4.15;;;5.30;99.90;;;;;;5050458;28;20500;-66
2021/12/08 05:53:23;;;;;;;12.07;2.83;;;5.30;99.90;;;;;;5050255;28;20057;-67
2021/12/08 05:55:50;;;;;;;19.70;3.70;;;5.30;99.90;;;;;;5050649;28;20045;-65
2021/12/08 05:58:18;;;;;;;17.48;3.67;;;5.30;99.90;;;;;;5050009;28;20414;-64
2021/12/08 06:00:53;;;;;;;15.23;3.72;;;5.20;99.90;;;;;;5050315;28;20048;-65
2021/12/08 06:03:20;;;;;;;14.18;2.95;;;5.30;99.90;;;;;;5046147;28;20072;-67
2021/12/08 06:05:49;;;;;;;11.68;2.67;;;5.20;99.90;;;;;;5051193;28;20461;-64
2021/12/08 06:08:16;;;;;;;11.38;3.15;;;5.20;99.90;;;;;;5050700;28;20535;-65
2021/12/08 06:10:43;;;;;;;10.52;2.72;;;5.20;99.90;;;;;;5051955;28;20037;-65
2021/12/08 06:13:11;;;;;;;21.40;4.55;;;5.10;99.90;;;;;;5049600;28;20352;-65
2021/12/08 06:15:39;;;;;;;12.02;3.22;;;5.10;99.90;;;;;;5049356;28;20068;-65
2021/12/08 06:18:06;;;;;;;10.75;3.88;;;5.10;99.90;;;;;;5049894;28;20124;-65
2021/12/08 06:20:33;;;;;;;20.85;4.65;;;5.10;99.90;;;;;;5030718;28;20076;-64
2021/12/08 06:23:01;;;;;;;20.40;5.13;;;5.10;99.90;;;;;;5032052;28;20052;-64
2021/12/08 06:25:29;;;;;;;11.32;2.53;;;5.10;99.90;;;;;;5049992;28;20060;-64
2021/12/08 06:27:56;;;;;;;12.05;2.75;;;5.10;99.90;;;;;;5032979;28;20075;-68
2021/12/08 06:30:25;;;;;;;10.55;2.50;;;5.10;99.90;;;;;;5049418;28;20040;-67
2021/12/08 06:32:52;;;;;;;13.65;4.28;;;5.00;99.90;;;;;;5033028;28;20087;-65
2021/12/08 06:35:32;;;;;;;14.98;2.85;;;5.00;99.90;;;;;;5049227;28;20124;-66
2021/12/08 06:37:59;;;;;;;14.27;3.53;;;5.10;99.70;;;;;;5030185;28;20056;-64
2021/12/08 06:40:45;;;;;;;15.50;4.60;;;5.10;99.90;;;;;;5049548;28;20120;-64
2021/12/08 06:43:13;;;;;;;14.07;2.88;;;5.10;99.60;;;;;;5023699;28;20500;-65
2021/12/08 06:45:42;;;;;;;7.57;2.72;;;5.10;99.70;;;;;;5048908;28;20071;-64
2021/12/08 06:48:11;;;;;;;13.75;2.38;;;5.10;99.90;;;;;;5049547;28;20076;-68
2021/12/08 06:50:51;;;;;;;132.13;69.87;;;5.00;99.80;;;;;;5049363;28;20124;-68
2021/12/08 06:53:18;;;;;;;;;;;5.00;99.90;;;;;;5034017;28;20060;-70
2021/12/08 06:55:57;;;;;;;16.58;7.22;;;5.10;99.20;;;;;;5053902;28;19931;-68
2021/12/08 06:58:30;;;;;;;17.65;5.13;;;5.10;99.10;;;;;;5049152;28;20049;-66
2021/12/08 07:09:03;;;;;;;11.88;3.42;;;5.10;99.00;;;;;;5048525;28;20460;-70
2021/12/08 07:11:31;;;;;;;14.57;4.10;;;5.10;98.70;;;;;;5049604;28;20084;-65
2021/12/08 07:13:58;;;;;;;13.65;4.15;;;5.10;98.80;;;;;;5033514;28;20479;-65
2021/12/08 07:16:29;;;;;;;263.92;165.48;;;5.10;99.80;;;;;;5048280;28;20513;-66
2021/12/08 07:19:02;;;;;;;27.70;10.60;;;5.10;99.40;;;;;;5050970;28;20049;-66
2021/12/08 07:21:33;;;;;;;17.42;4.70;;;5.10;99.00;;;;;;5029755;28;20053;-66
2021/12/08 07:24:24;;;;;;;14.15;3.85;;;5.10;98.90;;;;;;5034950;28;20192;-67
2021/12/08 07:26:54;;;;;;;10.18;2.63;;;5.00;98.80;;;;;;5045955;28;20045;-67
2021/12/08 07:29:30;;;;;;;14.00;3.45;;;5.00;99.10;;;;;;5047713;28;20099;-66
2021/12/08 07:32:19;;;;;;;14.73;3.47;;;5.00;99.60;;;;;;5049714;28;20048;-66
2021/12/08 07:34:50;;;;;;;12.43;3.60;;;5.00;99.90;;;;;;5046992;28;20049;-65
2021/12/08 07:37:20;;;;;;;8.60;2.55;;;5.00;99.60;;;;;;5049305;28;20113;-66
2021/12/08 07:40:15;;;;;;;12.48;4.72;;;5.00;99.20;;;;;;5048823;28;20044;-66
2021/12/08 07:42:54;;;;;;;14.88;4.47;;;5.00;99.60;;;;;;5021201;28;20151;-65
2021/12/08 07:45:31;;;;;;;12.38;3.20;;;5.00;98.90;;;;;;5047323;28;20112;-66
2021/12/08 07:48:00;;;;;;;11.63;3.22;;;5.10;98.90;;;;;;5034350;28;20071;-66
2021/12/08 07:50:30;;;;;;;19.50;4.18;;;5.10;98.80;;;;;;5044900;28;20250;-67
2021/12/08 07:52:58;;;;;;;12.70;3.10;;;5.10;98.90;;;;;;5033766;28;20400;-65
2021/12/08 07:55:28;;;;;;;16.88;3.58;;;5.10;99.30;;;;;;5033089;28;20049;-65
2021/12/08 07:57:55;;;;;;;15.27;3.90;;;5.10;99.20;;;;;;5047305;28;20132;-65
2021/12/08 08:00:32;;;;;;;11.98;3.78;;;5.10;99.50;;;;;;5038718;28;20149;-65
2021/12/08 08:02:59;;;;;;;12.30;3.13;;;5.10;98.80;;;;;;5047087;28;20543;-66
2021/12/08 08:05:28;;;;;;;15.15;6.88;;;5.10;99.30;;;;;;5049656;28;20053;-62
2021/12/08 08:08:02;;;;;;;24.52;12.20;;;5.10;99.10;;;;;;5032513;28;20056;-69
2021/12/08 08:10:35;;;;;;;44.00;17.98;;;5.10;98.70;;;;;;5038933;28;20445;-68
2021/12/08 08:13:07;;;;;;;14.27;3.47;;;5.10;99.30;;;;;;5047982;28;20080;-66
2021/12/08 08:15:36;;;;;;;17.75;4.80;;;5.10;98.70;;;;;;5048627;28;20047;-66
2021/12/08 08:18:08;;;;;;;18.23;4.30;;;5.10;98.40;;;;;;5036330;28;20144;-65
2021/12/08 08:20:38;;;;;;;12.52;3.58;;;5.20;98.80;;;;;;5021648;28;20546;-66
2021/12/08 08:23:05;;;;;;;10.98;3.35;;;5.20;98.70;;;;;;5040339;28;20076;-65
2021/12/08 08:25:35;;;;;;;20.85;3.88;;;5.20;99.00;;;;;;5044987;28;20084;-65
2021/12/08 08:28:03;;;;;;;20.65;4.20;;;5.20;98.30;;;;;;5053046;28;20063;-66
2021/12/08 08:30:36;;;;;;;11.20;3.38;;;5.30;98.60;;;;;;5053023;28;20052;-67
2021/12/08 08:33:04;;;;;;;11.88;3.22;;;5.40;98.70;;;;;;5052466;28;20129;-64
2021/12/08 08:35:35;;;;;;;22.20;5.13;;;5.40;98.40;;;;;;5052307;28;20144;-68
2021/12/08 08:38:05;;;;;;;13.95;3.47;;;5.40;98.60;;;;;;5045746;28;20156;-65
2021/12/08 08:40:43;;;;;;;15.70;3.15;;;5.50;98.80;;;;;;5053346;28;20132;-67
2021/12/08 08:43:10;;;;;;;14.63;3.60;;;5.50;98.30;;;;;;5052030;28;20077;-64
2021/12/08 08:45:43;;;;;;;21.08;4.60;;;5.50;98.40;;;;;;5017337;28;20045;-67
2021/12/08 08:48:13;;;;;;;30.33;16.13;;;5.50;98.40;;;;;;5020204;28;20052;-67
2021/12/08 08:50:53;;;;;;;14.73;4.85;;;5.60;98.20;;;;;;5034818;28;20497;-64
2021/12/08 08:53:21;;;;;;;16.08;3.55;;;5.60;98.60;;;;;;5051985;28;20449;-64
2021/12/08 08:55:53;;;;;;;16.77;3.72;;;5.60;98.30;;;;;;5035717;28;20088;-68
2021/12/08 08:58:22;;;;;;;19.63;4.10;;;5.60;98.30;;;;;;5052146;28;20057;-64
2021/12/08 09:00:58;;;;;;;13.35;4.35;;;5.70;98.40;;;;;;5053377;28;20045;-64
2021/12/08 09:03:27;;;;;;;18.05;3.72;;;5.70;98.20;;;;;;5066661;28;20171;-68
2021/12/08 09:06:00;;;;;;;15.48;4.15;;;5.70;98.60;;;;;;5055745;28;20064;-65
2021/12/08 09:08:28;;;;;;;16.88;5.20;;;5.80;98.40;;;;;;5055105;28;20159;-68
2021/12/08 09:11:00;;;;;;;13.05;3.10;;;5.80;98.70;;;;;;5051849;28;20128;-65
2021/12/08 09:13:31;;;;;;;20.25;3.78;;;5.80;98.00;;;;;;5034782;28;20106;-76
2021/12/08 09:16:05;;;;;;;17.45;5.05;;;5.90;98.00;;;;;;5051275;28;20079;-65
2021/12/08 09:18:48;;;;;;;19.90;4.65;;;5.90;98.30;;;;;;5051740;28;20186;-65
2021/12/08 09:21:29;;;;;;;16.77;3.58;;;6.00;98.40;;;;;;5051657;28;20417;-65
2021/12/08 09:23:58;;;;;;;19.73;3.60;;;6.00;97.70;;;;;;5051753;28;20127;-65
2021/12/08 09:26:26;;;;;;;15.00;3.95;;;6.10;97.40;;;;;;5048631;28;20373;-65
2021/12/08 09:28:56;;;;;;;15.70;3.95;;;6.10;97.30;;;;;;5049695;28;20132;-65
2021/12/08 09:31:29;;;;;;;17.80;4.65;;;6.20;97.00;;;;;;5052253;28;20965;-66
2021/12/08 09:34:01;;;;;;;34.85;7.93;;;6.20;97.10;;;;;;5025394;28;20041;-65
2021/12/08 09:36:39;;;;;;;18.13;4.30;;;6.20;96.90;;;;;;5049800;28;20129;-66
2021/12/08 09:39:09;;;;;;;17.17;3.35;;;6.30;95.50;;;;;;5050831;28;20053;-65
2021/12/08 09:41:56;;;;;;;11.60;3.60;;;6.40;96.40;;;;;;5051301;28;20045;-66
2021/12/08 09:44:26;;;;;;;15.63;3.95;;;6.40;95.70;;;;;;5050984;28;20045;-65
2021/12/08 09:46:54;;;;;;;15.20;3.53;;;6.50;95.80;;;;;;5050951;28;20056;-65
2021/12/08 09:49:25;;;;;;;20.80;3.92;;;6.50;95.80;;;;;;5052473;28;20063;-65
2021/12/08 09:51:55;;;;;;;17.02;4.25;;;6.50;95.30;;;;;;5040366;28;20093;-65
2021/12/08 09:54:22;;;;;;;13.55;4.93;;;6.50;95.60;;;;;;5039642;28;20053;-66
2021/12/08 09:56:50;;;;;;;20.23;4.47;;;6.60;94.30;;;;;;5052260;28;20057;-66
2021/12/08 09:59:17;;;;;;;11.98;4.00;;;6.60;94.80;;;;;;5051931;28;20045;-65
2021/12/08 10:01:44;;;;;;;16.80;5.10;;;6.50;93.90;;;;;;5050624;28;20493;-66
2021/12/08 10:04:12;;;;;;;16.95;4.38;;;6.50;94.30;;;;;;5052237;28;20051;-65
2021/12/08 10:06:40;;;;;;;14.55;5.15;;;6.60;94.80;;;;;;5034218;28;20099;-66
2021/12/08 10:09:07;;;;;;;19.05;4.78;;;6.50;94.90;;;;;;5050497;28;20049;-68
2021/12/08 10:11:35;;;;;;;15.65;4.07;;;6.50;93.70;;;;;;5030840;28;20053;-65
2021/12/08 10:14:02;;;;;;;15.60;3.03;;;6.50;94.40;;;;;;5031632;28;20049;-67
2021/12/08 10:16:29;;;;;;;20.48;4.15;;;6.50;94.50;;;;;;5071017;28;20123;-67
2021/12/08 10:18:57;;;;;;;15.98;3.88;;;6.50;94.50;;;;;;5028842;28;20080;-66
2021/12/08 10:21:37;;;;;;;12.95;4.25;;;6.50;93.50;;;;;;5051434;28;20045;-70
2021/12/08 10:24:25;;;;;;;16.50;4.25;;;6.50;93.20;;;;;;5065858;28;20362;-65
2021/12/08 10:27:05;;;;;;;11.27;3.75;;;6.50;93.20;;;;;;5050556;28;20393;-65
2021/12/08 10:29:33;;;;;;;21.98;5.13;;;6.60;93.90;;;;;;5050196;28;20113;-65
2021/12/08 10:32:00;;;;;;;20.80;3.75;;;6.60;93.60;;;;;;5034139;28;20045;-66
2021/12/08 10:34:34;;;;;;;29.70;12.65;;;6.60;93.60;;;;;;5050662;28;20116;-72
2021/12/08 10:37:06;;;;;;;22.08;6.40;;;6.70;93.70;;;;;;5050459;28;20124;-70
2021/12/08 10:39:42;;;;;;;15.50;3.67;;;6.80;92.80;;;;;;5049194;28;20120;-71
2021/12/08 10:42:22;;;;;;;19.52;3.78;;;6.80;92.70;;;;;;5032966;28;20498;-70
2021/12/08 10:45:02;;;;;;;10.00;4.30;;;6.90;92.10;;;;;;5050351;28;20120;-70
2021/12/08 10:47:30;;;;;;;;;;;7.00;91.30;;;;;;5050714;28;20099;-69
2021/12/08 10:55:20;;;;;;;18.13;3.25;;;7.10;91.80;;;;;;5050608;28;20563;-69
2021/12/08 10:57:50;;;;;;;16.17;4.43;;;7.20;91.90;;;;;;5032260;28;20192;-73
2021/12/08 11:00:19;;;;;;;12.73;4.10;;;7.20;92.10;;;;;;5050317;28;20159;-69
2021/12/08 11:02:50;;;;;;;14.68;4.22;;;7.20;90.90;;;;;;5050172;28;20048;-69
2021/12/08 11:05:23;;;;;;;25.40;5.50;;;7.20;91.00;;;;;;5050359;28;20045;-69
2021/12/08 11:08:14;;;;;;;22.50;4.20;;;7.30;89.40;;;;;;5038686;28;20060;-69
2021/12/08 11:10:47;;;;;;;19.88;4.53;;;7.30;91.20;;;;;;5030194;28;20053;-69
2021/12/08 11:13:15;;;;;;;21.60;3.95;;;7.20;91.00;;;;;;5046853;28;20057;-71
2021/12/08 11:15:42;;;;;;;11.88;3.97;;;7.20;92.40;;;;;;5029502;28;20132;-69
2021/12/08 11:18:20;;;;;;;10.63;3.38;;;7.20;90.70;;;;;;5046287;28;20084;-69
2021/12/08 11:21:01;;;;;;;15.13;3.42;;;7.20;91.10;;;;;;5029425;28;20235;-72
2021/12/08 11:23:54;;;;;;;15.55;3.72;;;7.20;91.30;;;;;;5032263;28;20152;-69
2021/12/08 11:26:29;;;;;;;13.77;4.05;;;7.20;91.10;;;;;;5031924;28;20111;-70
2021/12/08 11:29:05;;;;;;;16.75;4.03;;;7.20;91.70;;;;;;5033658;28;20095;-69
2021/12/08 11:31:54;;;;;;;21.88;5.65;;;7.30;91.10;;;;;;5050457;28;20063;-70
2021/12/08 11:34:27;;;;;;;15.35;3.60;;;7.40;90.30;;;;;;5049512;28;20056;-69
2021/12/08 11:36:59;;;;;;;20.50;4.65;;;7.50;90.20;;;;;;5013837;28;20088;-69
2021/12/08 11:39:32;;;;;;;13.90;4.40;;;7.60;90.00;;;;;;5013133;28;20107;-72
2021/12/08 11:42:10;;;;;;;19.00;3.90;;;7.70;89.50;;;;;;5023349;28;20056;-69
2021/12/08 11:44:40;;;;;;;19.58;4.22;;;7.70;91.10;;;;;;5033915;28;20098;-70
2021/12/08 11:47:15;;;;;;;14.98;3.60;;;7.70;90.10;;;;;;5032286;28;20052;-69
2021/12/08 11:49:45;;;;;;;15.13;3.92;;;7.70;90.20;;;;;;5049084;28;20241;-69
2021/12/08 11:52:19;;;;;;;10.15;3.50;;;7.80;88.90;;;;;;5048319;28;20445;-69
2021/12/08 11:54:59;;;;;;;11.80;3.67;;;7.90;91.00;;;;;;5045159;28;20836;-71
2021/12/08 11:57:44;;;;;;;46.97;23.50;;;7.90;90.40;;;;;;5048596;28;20770;-72
2021/12/08 12:00:18;;;;;;;20.58;9.93;;;8.00;91.20;;;;;;5052189;28;20076;-68
2021/12/08 12:03:01;;;;;;;14.10;6.18;;;8.00;90.50;;;;;;5045423;28;20045;-69
2021/12/08 12:05:36;;;;;;;16.80;5.63;;;8.00;90.40;;;;;;5035333;28;20084;-67
2021/12/08 12:08:07;;;;;;;17.25;3.80;;;8.00;90.00;;;;;;5047727;28;20055;-68
2021/12/08 12:10:36;;;;;;;16.30;4.57;;;8.10;88.60;;;;;;5048070;28;20099;-64
2021/12/08 12:13:03;;;;;;;17.58;4.18;;;8.10;90.40;;;;;;5047294;28;20052;-63
2021/12/08 12:15:30;;;;;;;19.02;3.97;;;8.20;90.50;;;;;;5047104;28;20088;-65
2021/12/08 12:17:57;;;;;;;16.85;3.97;;;8.20;90.00;;;;;;5029312;28;20428;-63
2021/12/08 12:20:31;;;;;;;15.05;3.60;;;8.20;89.30;;;;;;5049462;28;20057;-65
2021/12/08 12:23:31;;;;;;;14.43;4.22;;;8.30;90.80;;;;;;5014125;28;20485;-67
2021/12/08 12:26:09;;;;;;;16.38;3.80;;;8.30;88.40;;;;;;5035776;28;20124;-65
2021/12/08 12:29:07;;;;;;;13.70;3.67;;;8.30;88.20;;;;;;5047338;28;20143;-67
2021/12/08 12:31:54;;;;;;;14.90;3.20;;;8.40;86.00;;;;;;5033470;28;20041;-66
2021/12/08 12:34:38;;;;;;;14.82;3.67;;;8.40;86.30;;;;;;5047992;28;20084;-66
2021/12/08 12:37:18;;;;;;;18.55;4.72;;;8.40;86.50;;;;;;5015349;28;20067;-65
2021/12/08 12:39:52;;;;;;;18.60;4.15;;;8.30;88.80;;;;;;5049492;28;20093;-65
2021/12/08 12:42:20;;;;;;;15.88;4.78;;;8.30;85.80;;;;;;5048896;28;20127;-65
2021/12/08 12:45:02;;;;;;;15.18;3.85;;;8.30;87.60;;;;;;5048095;28;20128;-64
2021/12/08 12:47:30;;;;;;;14.43;4.07;;;8.30;88.00;;;;;;5049329;28;20048;-65
2021/12/08 12:50:00;;;;;;;20.80;3.95;;;8.30;86.50;;;;;;5028727;28;20076;-65
2021/12/08 12:52:35;;;;;;;15.27;4.18;;;8.30;87.30;;;;;;5032154;28;20060;-65
2021/12/08 12:55:07;;;;;;;14.00;4.93;;;8.20;86.80;;;;;;5047392;28;20063;-65
2021/12/08 12:58:03;;;;;;;16.13;4.70;;;8.20;86.90;;;;;;5046796;28;20049;-66
2021/12/08 13:00:48;;;;;;;14.30;3.90;;;8.30;86.30;;;;;;5041730;28;20107;-64
2021/12/08 13:03:57;;;;;;;15.75;4.35;;;8.30;88.20;;;;;;5048715;28;20041;-63
2021/12/08 13:06:46;;;;;;;15.15;3.83;;;8.40;86.50;;;;;;5024207;28;20060;-62
2021/12/08 13:09:37;;;;;;;14.52;3.72;;;8.40;85.70;;;;;;4994214;28;20066;-62
2021/12/08 13:12:08;;;;;;;12.52;3.78;;;8.40;86.80;;;;;;5042799;28;20056;-62
2021/12/08 13:14:43;;;;;;;175.65;105.03;;;8.40;88.90;;;;;;5034124;28;20072;-62
2021/12/08 13:17:12;;;;;;;41.97;19.63;;;8.50;87.20;;;;;;5050952;28;20135;-62
2021/12/08 13:19:44;;;;;;;19.33;4.47;;;8.60;87.70;;;;;;5052107;28;20200;-61
2021/12/08 13:22:50;;;;;;;12.15;3.75;;;8.70;86.00;;;;;;5052206;28;20051;-62
2021/12/08 13:25:49;;;;;;;11.05;3.60;;;8.80;87.50;;;;;;5048784;28;20195;-62
2021/12/08 13:28:34;;;;;;;11.45;4.13;;;8.80;86.10;;;;;;5033538;28;20075;-62
2021/12/08 13:31:14;;;;;;;21.35;3.70;;;8.90;85.00;;;;;;5033891;28;20048;-62
2021/12/08 13:33:52;;;;;;;14.63;4.25;;;8.90;82.60;;;;;;5049576;28;20483;-63
2021/12/08 13:36:23;;;;;;;9.68;3.45;;;8.90;83.80;;;;;;5051086;28;20072;-61
2021/12/08 13:38:59;;;;;;;17.48;3.92;;;8.90;82.00;;;;;;5051191;28;20136;-63
2021/12/08 13:41:28;;;;;;;11.02;3.35;;;8.90;81.40;;;;;;5055326;28;20106;-63
2021/12/08 13:43:56;;;;;;;19.27;3.80;;;8.80;82.40;;;;;;5052739;28;20048;-62
2021/12/08 13:46:45;;;;;;;18.30;3.45;;;8.80;82.90;;;;;;5014667;28;20128;-62
2021/12/08 13:49:16;;;;;;;13.45;3.55;;;8.80;82.90;;;;;;5052255;28;20450;-62
2021/12/08 13:52:13;;;;;;;17.58;4.10;;;8.80;80.10;;;;;;5039428;28;20500;-70
2021/12/08 13:54:42;;;;;;;24.90;10.40;;;8.80;80.50;;;;;;5045543;28;20045;-64
2021/12/08 13:57:27;;;;;;;59.63;34.20;;;8.80;81.80;;;;;;5048499;28;20048;-63
2021/12/08 14:00:17;;;;;;;14.85;5.13;;;8.90;81.40;;;;;;5051898;28;20114;-63
2021/12/08 14:02:51;;;;;;;19.10;4.45;;;8.80;79.90;;;;;;5037486;28;20060;-62
2021/12/08 14:05:26;;;;;;;8.70;3.20;;;8.80;79.80;;;;;;5033444;28;20053;-63